sensor_id;sensor_type;location;lat;lon;timestamp;P1;durP1;ratioP1;P2;durP2;ratioP2
37349;SDS011;23231;52.358;4.926;2024-01-30T00:05:05;29.27;;;17.50;;
37349;SDS011;23231;52.358;4.926;2024-01-30T00:10:31;28.55;;;17.95;;
37349;SDS011;23231;52.358;4.926;2024-01-30T00:15:42;34.05;;;17.70;;
37349;SDS011;23231;52.358;4.926;2024-01-30T00:20:52;31.75;;;17.65;;
37349;SDS011;23231;52.358;4.926;2024-01-30T00:25:57;31.95;;;18.13;;
37349;SDS011;23231;52.358;4.926;2024-01-30T00:31:03;32.00;;;17.40;;
37349;SDS011;23231;52.358;4.926;2024-01-30T00:36:15;26.20;;;16.80;;
37349;SDS011;23231;52.358;4.926;2024-01-30T00:41:26;28.27;;;16.52;;
37349;SDS011;23231;52.358;4.926;2024-01-30T00:46:30;25.98;;;15.40;;
37349;SDS011;23231;52.358;4.926;2024-01-30T00:51:36;24.70;;;15.52;;
37349;SDS011;23231;52.358;4.926;2024-01-30T00:56:48;24.60;;;15.38;;
37349;SDS011;23231;52.358;4.926;2024-01-30T01:02:19;25.33;;;15.20;;
37349;SDS011;23231;52.358;4.926;2024-01-30T01:07:27;22.27;;;14.38;;
37349;SDS011;23231;52.358;4.926;2024-01-30T01:12:34;21.83;;;13.90;;
37349;SDS011;23231;52.358;4.926;2024-01-30T01:17:39;24.42;;;14.35;;
37349;SDS011;23231;52.358;4.926;2024-01-30T01:22:57;24.93;;;15.07;;
37349;SDS011;23231;52.358;4.926;2024-01-30T01:28:00;26.77;;;14.70;;
37349;SDS011;23231;52.358;4.926;2024-01-30T01:33:05;23.73;;;14.45;;
37349;SDS011;23231;52.358;4.926;2024-01-30T01:38:11;22.60;;;13.17;;
37349;SDS011;23231;52.358;4.926;2024-01-30T01:43:19;25.20;;;14.07;;
37349;SDS011;23231;52.358;4.926;2024-01-30T01:48:22;21.85;;;13.55;;
37349;SDS011;23231;52.358;4.926;2024-01-30T01:53:32;24.13;;;14.32;;
37349;SDS011;23231;52.358;4.926;2024-01-30T01:58:34;22.50;;;13.70;;
37349;SDS011;23231;52.358;4.926;2024-01-30T02:03:43;21.85;;;13.55;;
37349;SDS011;23231;52.358;4.926;2024-01-30T02:08:48;21.38;;;13.25;;
37349;SDS011;23231;52.358;4.926;2024-01-30T02:14:01;21.02;;;13.10;;
37349;SDS011;23231;52.358;4.926;2024-01-30T02:19:34;22.92;;;14.13;;
37349;SDS011;23231;52.358;4.926;2024-01-30T02:24:38;24.85;;;13.43;;
37349;SDS011;23231;52.358;4.926;2024-01-30T02:29:43;22.65;;;13.07;;
37349;SDS011;23231;52.358;4.926;2024-01-30T02:34:46;22.35;;;12.80;;
37349;SDS011;23231;52.358;4.926;2024-01-30T02:40:00;19.77;;;12.80;;
37349;SDS011;23231;52.358;4.926;2024-01-30T02:45:12;21.80;;;12.57;;
37349;SDS011;23231;52.358;4.926;2024-01-30T02:50:22;24.92;;;12.57;;
37349;SDS011;23231;52.358;4.926;2024-01-30T02:55:26;22.75;;;12.77;;
37349;SDS011;23231;52.358;4.926;2024-01-30T03:00:35;22.58;;;12.88;;
37349;SDS011;23231;52.358;4.926;2024-01-30T03:05:41;22.17;;;12.98;;
37349;SDS011;23231;52.358;4.926;2024-01-30T03:10:52;20.92;;;12.63;;
37349;SDS011;23231;52.358;4.926;2024-01-30T03:16:00;18.55;;;10.95;;
37349;SDS011;23231;52.358;4.926;2024-01-30T03:21:07;24.50;;;12.32;;
37349;SDS011;23231;52.358;4.926;2024-01-30T03:26:14;20.15;;;11.75;;
37349;SDS011;23231;52.358;4.926;2024-01-30T03:31:22;21.27;;;11.60;;
37349;SDS011;23231;52.358;4.926;2024-01-30T03:36:29;21.02;;;12.07;;
37349;SDS011;23231;52.358;4.926;2024-01-30T03:41:38;22.35;;;12.00;;
37349;SDS011;23231;52.358;4.926;2024-01-30T03:46:57;25.27;;;12.50;;
37349;SDS011;23231;52.358;4.926;2024-01-30T03:52:01;18.45;;;10.98;;
37349;SDS011;23231;52.358;4.926;2024-01-30T03:57:04;19.88;;;12.63;;
37349;SDS011;23231;52.358;4.926;2024-01-30T04:02:06;19.90;;;11.25;;
37349;SDS011;23231;52.358;4.926;2024-01-30T04:07:07;20.20;;;11.20;;
37349;SDS011;23231;52.358;4.926;2024-01-30T04:12:19;19.02;;;10.95;;
37349;SDS011;23231;52.358;4.926;2024-01-30T04:17:41;19.83;;;11.93;;
37349;SDS011;23231;52.358;4.926;2024-01-30T04:22:55;21.23;;;11.77;;
37349;SDS011;23231;52.358;4.926;2024-01-30T04:28:05;19.60;;;12.15;;
37349;SDS011;23231;52.358;4.926;2024-01-30T04:33:23;21.67;;;11.60;;
37349;SDS011;23231;52.358;4.926;2024-01-30T04:38:28;20.95;;;11.88;;
37349;SDS011;23231;52.358;4.926;2024-01-30T04:43:37;18.17;;;11.23;;
37349;SDS011;23231;52.358;4.926;2024-01-30T04:48:46;17.05;;;11.20;;
37349;SDS011;23231;52.358;4.926;2024-01-30T04:53:51;18.08;;;10.93;;
37349;SDS011;23231;52.358;4.926;2024-01-30T04:58:55;21.60;;;12.10;;
37349;SDS011;23231;52.358;4.926;2024-01-30T05:04:10;21.42;;;11.80;;
37349;SDS011;23231;52.358;4.926;2024-01-30T05:09:11;17.30;;;11.15;;
37349;SDS011;23231;52.358;4.926;2024-01-30T05:14:12;25.20;;;12.18;;
37349;SDS011;23231;52.358;4.926;2024-01-30T05:19:15;21.27;;;11.50;;
37349;SDS011;23231;52.358;4.926;2024-01-30T05:24:15;23.00;;;11.80;;
37349;SDS011;23231;52.358;4.926;2024-01-30T05:29:16;17.42;;;11.13;;
37349;SDS011;23231;52.358;4.926;2024-01-30T05:34:19;19.30;;;11.00;;
37349;SDS011;23231;52.358;4.926;2024-01-30T05:39:23;19.70;;;12.20;;
37349;SDS011;23231;52.358;4.926;2024-01-30T05:44:24;19.65;;;12.02;;
37349;SDS011;23231;52.358;4.926;2024-01-30T05:49:26;23.42;;;12.15;;
37349;SDS011;23231;52.358;4.926;2024-01-30T05:54:28;17.35;;;10.27;;
37349;SDS011;23231;52.358;4.926;2024-01-30T05:59:30;19.88;;;11.50;;
37349;SDS011;23231;52.358;4.926;2024-01-30T06:04:32;18.83;;;11.38;;
37349;SDS011;23231;52.358;4.926;2024-01-30T06:09:32;20.25;;;11.43;;
37349;SDS011;23231;52.358;4.926;2024-01-30T06:14:34;19.48;;;11.93;;
37349;SDS011;23231;52.358;4.926;2024-01-30T06:19:34;20.25;;;11.43;;
37349;SDS011;23231;52.358;4.926;2024-01-30T06:24:35;19.67;;;12.07;;
37349;SDS011;23231;52.358;4.926;2024-01-30T06:29:36;21.35;;;12.30;;
37349;SDS011;23231;52.358;4.926;2024-01-30T06:34:38;21.60;;;12.52;;
37349;SDS011;23231;52.358;4.926;2024-01-30T06:39:47;18.55;;;11.27;;
37349;SDS011;23231;52.358;4.926;2024-01-30T06:44:51;24.05;;;11.93;;
37349;SDS011;23231;52.358;4.926;2024-01-30T06:49:51;20.08;;;11.35;;
37349;SDS011;23231;52.358;4.926;2024-01-30T06:54:52;21.98;;;11.77;;
37349;SDS011;23231;52.358;4.926;2024-01-30T06:59:54;19.65;;;11.88;;
37349;SDS011;23231;52.358;4.926;2024-01-30T07:04:55;21.02;;;11.77;;
37349;SDS011;23231;52.358;4.926;2024-01-30T07:09:56;18.45;;;11.80;;
37349;SDS011;23231;52.358;4.926;2024-01-30T07:15:00;20.75;;;12.07;;
37349;SDS011;23231;52.358;4.926;2024-01-30T07:20:04;22.35;;;13.32;;
37349;SDS011;23231;52.358;4.926;2024-01-30T07:25:07;19.95;;;11.18;;
37349;SDS011;23231;52.358;4.926;2024-01-30T07:30:09;19.17;;;11.77;;
37349;SDS011;23231;52.358;4.926;2024-01-30T07:35:11;22.08;;;11.95;;
37349;SDS011;23231;52.358;4.926;2024-01-30T07:40:12;21.48;;;12.02;;
37349;SDS011;23231;52.358;4.926;2024-01-30T07:45:14;21.60;;;12.35;;
37349;SDS011;23231;52.358;4.926;2024-01-30T07:50:22;20.13;;;11.82;;
37349;SDS011;23231;52.358;4.926;2024-01-30T07:55:27;21.40;;;12.57;;
37349;SDS011;23231;52.358;4.926;2024-01-30T08:00:29;18.85;;;10.68;;
37349;SDS011;23231;52.358;4.926;2024-01-30T08:05:29;21.73;;;11.63;;
37349;SDS011;23231;52.358;4.926;2024-01-30T08:10:30;21.17;;;11.85;;
37349;SDS011;23231;52.358;4.926;2024-01-30T08:15:32;17.70;;;10.55;;
37349;SDS011;23231;52.358;4.926;2024-01-30T08:20:38;20.57;;;11.23;;
37349;SDS011;23231;52.358;4.926;2024-01-30T08:25:40;21.30;;;11.98;;
37349;SDS011;23231;52.358;4.926;2024-01-30T08:30:42;21.00;;;11.55;;
37349;SDS011;23231;52.358;4.926;2024-01-30T08:35:44;20.88;;;11.07;;
37349;SDS011;23231;52.358;4.926;2024-01-30T08:40:46;15.85;;;10.25;;
37349;SDS011;23231;52.358;4.926;2024-01-30T08:45:48;20.83;;;11.68;;
37349;SDS011;23231;52.358;4.926;2024-01-30T08:50:49;16.48;;;10.43;;
37349;SDS011;23231;52.358;4.926;2024-01-30T08:55:51;18.58;;;10.70;;
37349;SDS011;23231;52.358;4.926;2024-01-30T09:00:53;20.00;;;10.38;;
37349;SDS011;23231;52.358;4.926;2024-01-30T09:05:57;21.58;;;11.50;;
37349;SDS011;23231;52.358;4.926;2024-01-30T09:11:01;21.20;;;11.00;;
37349;SDS011;23231;52.358;4.926;2024-01-30T09:16:11;23.70;;;11.40;;
37349;SDS011;23231;52.358;4.926;2024-01-30T09:21:17;20.70;;;10.82;;
37349;SDS011;23231;52.358;4.926;2024-01-30T09:26:27;21.95;;;12.30;;
37349;SDS011;23231;52.358;4.926;2024-01-30T09:31:31;23.75;;;11.38;;
37349;SDS011;23231;52.358;4.926;2024-01-30T09:36:40;22.17;;;11.25;;
37349;SDS011;23231;52.358;4.926;2024-01-30T09:41:48;21.10;;;11.77;;
37349;SDS011;23231;52.358;4.926;2024-01-30T09:46:54;20.52;;;12.30;;
37349;SDS011;23231;52.358;4.926;2024-01-30T09:51:55;24.70;;;12.15;;
37349;SDS011;23231;52.358;4.926;2024-01-30T09:56:58;21.85;;;12.20;;
37349;SDS011;23231;52.358;4.926;2024-01-30T10:02:00;21.83;;;9.63;;
37349;SDS011;23231;52.358;4.926;2024-01-30T10:07:03;15.75;;;6.65;;
37349;SDS011;23231;52.358;4.926;2024-01-30T10:12:08;17.42;;;5.68;;
37349;SDS011;23231;52.358;4.926;2024-01-30T10:17:09;13.40;;;4.15;;
37349;SDS011;23231;52.358;4.926;2024-01-30T10:22:21;12.23;;;3.15;;
37349;SDS011;23231;52.358;4.926;2024-01-30T10:27:27;10.13;;;2.45;;
37349;SDS011;23231;52.358;4.926;2024-01-30T10:32:27;9.05;;;2.45;;
37349;SDS011;23231;52.358;4.926;2024-01-30T10:37:28;11.63;;;2.58;;
37349;SDS011;23231;52.358;4.926;2024-01-30T10:42:32;6.88;;;2.20;;
37349;SDS011;23231;52.358;4.926;2024-01-30T10:47:39;7.25;;;1.88;;
37349;SDS011;23231;52.358;4.926;2024-01-30T10:52:46;6.60;;;1.73;;
37349;SDS011;23231;52.358;4.926;2024-01-30T10:57:52;3.85;;;1.10;;
37349;SDS011;23231;52.358;4.926;2024-01-30T11:02:55;4.00;;;1.02;;
37349;SDS011;23231;52.358;4.926;2024-01-30T11:07:57;2.95;;;0.80;;
37349;SDS011;23231;52.358;4.926;2024-01-30T11:13:13;2.90;;;1.10;;
37349;SDS011;23231;52.358;4.926;2024-01-30T11:18:24;7.45;;;1.30;;
37349;SDS011;23231;52.358;4.926;2024-01-30T11:23:26;7.25;;;1.52;;
37349;SDS011;23231;52.358;4.926;2024-01-30T11:28:31;8.60;;;1.48;;
37349;SDS011;23231;52.358;4.926;2024-01-30T11:33:39;5.05;;;1.20;;
37349;SDS011;23231;52.358;4.926;2024-01-30T11:38:45;8.27;;;1.70;;
37349;SDS011;23231;52.358;4.926;2024-01-30T11:43:55;5.22;;;1.40;;
37349;SDS011;23231;52.358;4.926;2024-01-30T11:48:59;9.05;;;2.20;;
37349;SDS011;23231;52.358;4.926;2024-01-30T11:54:03;5.13;;;1.30;;
37349;SDS011;23231;52.358;4.926;2024-01-30T11:59:06;5.15;;;1.42;;
37349;SDS011;23231;52.358;4.926;2024-01-30T12:04:15;7.93;;;1.65;;
37349;SDS011;23231;52.358;4.926;2024-01-30T12:09:19;7.57;;;1.83;;
37349;SDS011;23231;52.358;4.926;2024-01-30T12:14:26;5.28;;;1.60;;
37349;SDS011;23231;52.358;4.926;2024-01-30T12:19:39;4.82;;;1.92;;
37349;SDS011;23231;52.358;4.926;2024-01-30T12:24:48;9.40;;;1.73;;
37349;SDS011;23231;52.358;4.926;2024-01-30T12:30:06;7.82;;;2.28;;
37349;SDS011;23231;52.358;4.926;2024-01-30T12:35:12;9.15;;;2.83;;
37349;SDS011;23231;52.358;4.926;2024-01-30T12:40:19;8.88;;;2.67;;
37349;SDS011;23231;52.358;4.926;2024-01-30T12:45:28;14.40;;;3.33;;
37349;SDS011;23231;52.358;4.926;2024-01-30T12:50:36;8.25;;;3.30;;
37349;SDS011;23231;52.358;4.926;2024-01-30T12:55:42;11.48;;;3.20;;
37349;SDS011;23231;52.358;4.926;2024-01-30T13:00:50;12.30;;;3.08;;
37349;SDS011;23231;52.358;4.926;2024-01-30T13:05:52;11.05;;;2.53;;
37349;SDS011;23231;52.358;4.926;2024-01-30T13:11:05;11.27;;;2.80;;
37349;SDS011;23231;52.358;4.926;2024-01-30T13:16:13;8.50;;;2.90;;
37349;SDS011;23231;52.358;4.926;2024-01-30T13:21:22;11.80;;;3.28;;
37349;SDS011;23231;52.358;4.926;2024-01-30T13:26:28;6.93;;;3.25;;
37349;SDS011;23231;52.358;4.926;2024-01-30T13:31:40;9.95;;;3.17;;
37349;SDS011;23231;52.358;4.926;2024-01-30T13:36:47;7.13;;;3.20;;
37349;SDS011;23231;52.358;4.926;2024-01-30T13:41:54;6.75;;;3.60;;
37349;SDS011;23231;52.358;4.926;2024-01-30T13:47:08;7.32;;;3.30;;
37349;SDS011;23231;52.358;4.926;2024-01-30T13:52:13;7.13;;;3.58;;
37349;SDS011;23231;52.358;4.926;2024-01-30T13:57:23;7.60;;;3.53;;
37349;SDS011;23231;52.358;4.926;2024-01-30T14:02:28;9.73;;;4.10;;
37349;SDS011;23231;52.358;4.926;2024-01-30T14:07:33;9.30;;;3.65;;
37349;SDS011;23231;52.358;4.926;2024-01-30T14:12:45;9.43;;;3.13;;
37349;SDS011;23231;52.358;4.926;2024-01-30T14:17:48;13.48;;;4.35;;
37349;SDS011;23231;52.358;4.926;2024-01-30T14:22:58;10.80;;;3.90;;
37349;SDS011;23231;52.358;4.926;2024-01-30T14:28:27;10.10;;;4.25;;
37349;SDS011;23231;52.358;4.926;2024-01-30T14:33:46;9.60;;;4.40;;
37349;SDS011;23231;52.358;4.926;2024-01-30T14:38:59;8.00;;;4.15;;
37349;SDS011;23231;52.358;4.926;2024-01-30T14:44:03;8.63;;;3.92;;
37349;SDS011;23231;52.358;4.926;2024-01-30T14:49:09;7.13;;;3.38;;
37349;SDS011;23231;52.358;4.926;2024-01-30T14:54:19;10.02;;;3.67;;
37349;SDS011;23231;52.358;4.926;2024-01-30T14:59:22;6.45;;;2.90;;
37349;SDS011;23231;52.358;4.926;2024-01-30T15:04:28;5.95;;;2.75;;
37349;SDS011;23231;52.358;4.926;2024-01-30T15:09:54;6.53;;;3.47;;
37349;SDS011;23231;52.358;4.926;2024-01-30T15:14:57;5.75;;;2.40;;
37349;SDS011;23231;52.358;4.926;2024-01-30T15:20:04;4.55;;;2.10;;
37349;SDS011;23231;52.358;4.926;2024-01-30T15:25:07;4.93;;;2.10;;
37349;SDS011;23231;52.358;4.926;2024-01-30T15:30:14;9.13;;;2.88;;
37349;SDS011;23231;52.358;4.926;2024-01-30T15:35:27;11.15;;;3.30;;
37349;SDS011;23231;52.358;4.926;2024-01-30T15:40:32;17.40;;;4.77;;
37349;SDS011;23231;52.358;4.926;2024-01-30T15:45:35;12.00;;;3.67;;
37349;SDS011;23231;52.358;4.926;2024-01-30T15:50:38;15.40;;;3.97;;
37349;SDS011;23231;52.358;4.926;2024-01-30T15:55:48;14.15;;;3.13;;
37349;SDS011;23231;52.358;4.926;2024-01-30T16:00:52;13.17;;;3.00;;
37349;SDS011;23231;52.358;4.926;2024-01-30T16:06:01;9.48;;;2.88;;
37349;SDS011;23231;52.358;4.926;2024-01-30T16:11:16;12.02;;;3.50;;
37349;SDS011;23231;52.358;4.926;2024-01-30T16:16:27;11.00;;;2.75;;
37349;SDS011;23231;52.358;4.926;2024-01-30T16:21:31;9.90;;;2.53;;
37349;SDS011;23231;52.358;4.926;2024-01-30T16:26:35;11.80;;;2.97;;
37349;SDS011;23231;52.358;4.926;2024-01-30T16:31:43;17.48;;;3.53;;
37349;SDS011;23231;52.358;4.926;2024-01-30T16:36:51;18.35;;;3.70;;
37349;SDS011;23231;52.358;4.926;2024-01-30T16:41:55;12.07;;;2.55;;
37349;SDS011;23231;52.358;4.926;2024-01-30T16:47:03;19.52;;;3.70;;
37349;SDS011;23231;52.358;4.926;2024-01-30T16:52:22;22.15;;;3.25;;
37349;SDS011;23231;52.358;4.926;2024-01-30T16:57:31;17.85;;;3.05;;
37349;SDS011;23231;52.358;4.926;2024-01-30T17:02:40;15.90;;;2.72;;
37349;SDS011;23231;52.358;4.926;2024-01-30T17:07:48;19.00;;;3.35;;
37349;SDS011;23231;52.358;4.926;2024-01-30T17:13:14;26.23;;;4.18;;
37349;SDS011;23231;52.358;4.926;2024-01-30T17:18:20;24.13;;;3.42;;
37349;SDS011;23231;52.358;4.926;2024-01-30T17:23:29;18.67;;;3.35;;
37349;SDS011;23231;52.358;4.926;2024-01-30T17:28:40;17.55;;;3.17;;
37349;SDS011;23231;52.358;4.926;2024-01-30T17:33:44;17.73;;;3.72;;
37349;SDS011;23231;52.358;4.926;2024-01-30T17:38:46;17.15;;;3.72;;
37349;SDS011;23231;52.358;4.926;2024-01-30T17:43:48;18.50;;;3.58;;
37349;SDS011;23231;52.358;4.926;2024-01-30T17:48:50;16.85;;;2.95;;
37349;SDS011;23231;52.358;4.926;2024-01-30T17:53:55;20.95;;;3.40;;
37349;SDS011;23231;52.358;4.926;2024-01-30T17:59:06;16.38;;;3.50;;
37349;SDS011;23231;52.358;4.926;2024-01-30T18:04:07;25.33;;;3.80;;
37349;SDS011;23231;52.358;4.926;2024-01-30T18:09:17;18.27;;;3.92;;
37349;SDS011;23231;52.358;4.926;2024-01-30T18:14:34;20.38;;;4.30;;
37349;SDS011;23231;52.358;4.926;2024-01-30T18:19:42;19.35;;;4.47;;
37349;SDS011;23231;52.358;4.926;2024-01-30T18:24:53;28.33;;;4.75;;
37349;SDS011;23231;52.358;4.926;2024-01-30T18:30:01;21.77;;;4.22;;
37349;SDS011;23231;52.358;4.926;2024-01-30T18:35:13;20.02;;;4.80;;
37349;SDS011;23231;52.358;4.926;2024-01-30T18:40:16;21.55;;;3.88;;
37349;SDS011;23231;52.358;4.926;2024-01-30T18:45:21;13.88;;;3.33;;
37349;SDS011;23231;52.358;4.926;2024-01-30T18:50:29;19.60;;;3.72;;
37349;SDS011;23231;52.358;4.926;2024-01-30T18:55:33;20.02;;;4.00;;
37349;SDS011;23231;52.358;4.926;2024-01-30T19:00:37;15.32;;;4.13;;
37349;SDS011;23231;52.358;4.926;2024-01-30T19:05:42;16.48;;;3.67;;
37349;SDS011;23231;52.358;4.926;2024-01-30T19:10:47;14.02;;;2.85;;
37349;SDS011;23231;52.358;4.926;2024-01-30T19:15:50;18.95;;;3.40;;
37349;SDS011;23231;52.358;4.926;2024-01-30T19:20:55;9.32;;;2.50;;
37349;SDS011;23231;52.358;4.926;2024-01-30T19:26:09;11.13;;;3.50;;
37349;SDS011;23231;52.358;4.926;2024-01-30T19:31:16;15.27;;;3.33;;
37349;SDS011;23231;52.358;4.926;2024-01-30T19:36:17;15.85;;;2.95;;
37349;SDS011;23231;52.358;4.926;2024-01-30T19:41:20;16.17;;;3.28;;
37349;SDS011;23231;52.358;4.926;2024-01-30T19:46:28;8.15;;;1.35;;
37349;SDS011;23231;52.358;4.926;2024-01-30T19:51:30;14.07;;;2.38;;
37349;SDS011;23231;52.358;4.926;2024-01-30T19:56:32;10.18;;;2.10;;
37349;SDS011;23231;52.358;4.926;2024-01-30T20:01:32;11.52;;;2.92;;
37349;SDS011;23231;52.358;4.926;2024-01-30T20:06:34;11.05;;;3.03;;
37349;SDS011;23231;52.358;4.926;2024-01-30T20:11:37;10.55;;;3.13;;
37349;SDS011;23231;52.358;4.926;2024-01-30T20:16:38;10.45;;;3.20;;
37349;SDS011;23231;52.358;4.926;2024-01-30T20:21:41;13.60;;;3.00;;
37349;SDS011;23231;52.358;4.926;2024-01-30T20:26:47;13.52;;;4.22;;
37349;SDS011;23231;52.358;4.926;2024-01-30T20:31:51;8.35;;;3.05;;
37349;SDS011;23231;52.358;4.926;2024-01-30T20:37:00;5.28;;;2.17;;
37349;SDS011;23231;52.358;4.926;2024-01-30T20:42:05;6.03;;;2.30;;
37349;SDS011;23231;52.358;4.926;2024-01-30T20:47:10;8.02;;;1.73;;
37349;SDS011;23231;52.358;4.926;2024-01-30T20:52:13;3.70;;;1.30;;
37349;SDS011;23231;52.358;4.926;2024-01-30T20:57:22;7.07;;;1.77;;
37349;SDS011;23231;52.358;4.926;2024-01-30T21:02:33;7.78;;;2.70;;
37349;SDS011;23231;52.358;4.926;2024-01-30T21:07:37;10.60;;;3.10;;
37349;SDS011;23231;52.358;4.926;2024-01-30T21:12:44;11.63;;;4.25;;
37349;SDS011;23231;52.358;4.926;2024-01-30T21:17:49;13.05;;;3.88;;
37349;SDS011;23231;52.358;4.926;2024-01-30T21:22:53;15.70;;;4.28;;
37349;SDS011;23231;52.358;4.926;2024-01-30T21:27:55;9.43;;;2.53;;
37349;SDS011;23231;52.358;4.926;2024-01-30T21:33:06;5.32;;;1.80;;
37349;SDS011;23231;52.358;4.926;2024-01-30T21:43:31;7.55;;;1.48;;
37349;SDS011;23231;52.358;4.926;2024-01-30T21:48:36;7.70;;;2.80;;
37349;SDS011;23231;52.358;4.926;2024-01-30T21:53:45;6.63;;;1.60;;
37349;SDS011;23231;52.358;4.926;2024-01-30T21:58:49;7.47;;;1.67;;
37349;SDS011;23231;52.358;4.926;2024-01-30T22:04:00;10.57;;;1.83;;
37349;SDS011;23231;52.358;4.926;2024-01-30T22:09:01;6.05;;;1.50;;
37349;SDS011;23231;52.358;4.926;2024-01-30T22:14:08;5.97;;;1.50;;
37349;SDS011;23231;52.358;4.926;2024-01-30T22:19:15;7.75;;;1.58;;
37349;SDS011;23231;52.358;4.926;2024-01-30T22:24:18;4.60;;;1.30;;
37349;SDS011;23231;52.358;4.926;2024-01-30T22:29:22;8.07;;;1.55;;
37349;SDS011;23231;52.358;4.926;2024-01-30T22:34:27;6.55;;;1.80;;
37349;SDS011;23231;52.358;4.926;2024-01-30T22:39:37;6.80;;;1.63;;
37349;SDS011;23231;52.358;4.926;2024-01-30T22:44:41;4.80;;;1.48;;
37349;SDS011;23231;52.358;4.926;2024-01-30T22:49:45;5.78;;;2.42;;
37349;SDS011;23231;52.358;4.926;2024-01-30T22:54:52;5.78;;;1.75;;
37349;SDS011;23231;52.358;4.926;2024-01-30T23:00:00;10.55;;;2.28;;
37349;SDS011;23231;52.358;4.926;2024-01-30T23:05:27;9.55;;;2.80;;
37349;SDS011;23231;52.358;4.926;2024-01-30T23:10:36;11.23;;;3.35;;
37349;SDS011;23231;52.358;4.926;2024-01-30T23:15:44;9.40;;;3.15;;
37349;SDS011;23231;52.358;4.926;2024-01-30T23:20:48;11.50;;;3.30;;
37349;SDS011;23231;52.358;4.926;2024-01-30T23:26:14;10.73;;;3.00;;
37349;SDS011;23231;52.358;4.926;2024-01-30T23:31:15;11.50;;;3.08;;
37349;SDS011;23231;52.358;4.926;2024-01-30T23:36:20;9.82;;;2.63;;
37349;SDS011;23231;52.358;4.926;2024-01-30T23:41:25;9.90;;;2.58;;
37349;SDS011;23231;52.358;4.926;2024-01-30T23:46:33;7.05;;;2.35;;
37349;SDS011;23231;52.358;4.926;2024-01-30T23:51:36;8.90;;;2.15;;
37349;SDS011;23231;52.358;4.926;2024-01-30T23:56:41;10.00;;;2.10;;
